Canaveral Air Station, Florida
Current Conditions -  °F | °C
As of 11:58 PM on Friday 21 Nov 2014 (Local Time) from KCOF Reporting Station
Drizzle Drizzle  
Wind Chill: 70°   Ceiling: 3800
Heat Index: 70°   Visibility: 10mi
Dew Point: 63°   Wind: 16mph
Humidity: 78%   Direction: 70°ENE
Pressure: 30.25"   Gusts: NA
Location:  28.2343°N, 80.6078°W
Report Text: KCOF 220458Z AUTO 07014KT 10SM -DZ BKN038 OVC080 21/17 A3025 RMK AO2 RAB0410E0431DZB0406E0410B0431 SLP248 P0001 T02100171 402400197
Loading
Personal Weather Stations






























Interactive Weather Map New forecast layout! Learn more

10-Day Weather Forecast

Advertisements
Track Severe Weather on mobile